Time;durP1;ratioP1;P1;durP2;ratioP2;P2;SDS_P1;SDS_P2;PMS_P1;PMS_P2;Temp;Humidity;BMP_temperature;BMP_pressure;BME280_temperature;BME280_humidity;BME280_pressure;Samples;Min_cycle;Max_cycle;Signal;HPM_P1;HPM_P2
2022/11/19 00:01:44;;;;;;;9.68;3.17;;;1.10;99.90;;;;;;5071035;28;20066;-79
2022/11/19 00:04:10;;;;;;;5.20;2.85;;;1.10;99.90;;;;;;5070866;28;20060;-81
2022/11/19 00:06:35;;;;;;;4.80;2.50;;;1.10;99.90;;;;;;5069295;28;20037;-78
2022/11/19 00:09:03;;;;;;;6.03;2.90;;;1.10;99.90;;;;;;5070106;28;20071;-80
2022/11/19 00:14:14;;;;;;;7.13;2.90;;;1.10;99.90;;;;;;5071468;28;20052;-83
2022/11/19 00:16:42;;;;;;;5.63;3.22;;;1.10;99.90;;;;;;5066140;28;20045;-81
2022/11/19 00:19:09;;;;;;;5.93;3.53;;;1.00;99.90;;;;;;5049594;28;20091;-81
2022/11/19 00:21:35;;;;;;;5.13;2.97;;;1.00;99.90;;;;;;5050791;28;20045;-76
2022/11/19 00:24:01;;;;;;;4.95;3.10;;;1.00;99.90;;;;;;5049619;28;20526;-83
2022/11/19 00:26:26;;;;;;;4.78;3.40;;;1.00;99.90;;;;;;5033983;28;20127;-78
2022/11/19 00:28:53;;;;;;;5.10;3.00;;;1.00;99.90;;;;;;5049085;28;20053;-79
2022/11/19 00:31:19;;;;;;;6.45;3.05;;;1.00;99.90;;;;;;5050785;28;20053;-80
2022/11/19 00:33:45;;;;;;;6.03;3.20;;;1.00;99.90;;;;;;5050383;28;20808;-78
2022/11/19 00:36:13;;;;;;;5.28;3.30;;;1.00;99.90;;;;;;5050774;28;20048;-78
2022/11/19 00:38:39;;;;;;;6.65;3.30;;;0.90;99.90;;;;;;5051303;28;20040;-80
2022/11/19 00:41:05;;;;;;;6.28;3.25;;;0.90;99.90;;;;;;5049536;28;20056;-80
2022/11/19 00:43:46;;;;;;;5.55;3.38;;;0.90;99.90;;;;;;5050424;28;20132;-78
2022/11/19 00:46:16;;;;;;;5.35;3.00;;;0.80;99.90;;;;;;5050377;28;20670;-77
2022/11/19 00:48:42;;;;;;;6.50;3.35;;;0.80;99.90;;;;;;5051411;28;20484;-83
2022/11/19 00:51:09;;;;;;;5.35;3.05;;;0.80;99.90;;;;;;5048451;28;20084;-79
2022/11/19 00:53:35;;;;;;;5.85;3.42;;;0.80;99.90;;;;;;5050099;28;20566;-78
2022/11/19 00:56:06;;;;;;;5.40;2.88;;;0.70;99.90;;;;;;5049192;28;20126;-78
2022/11/19 00:58:31;;;;;;;6.65;4.03;;;0.70;99.90;;;;;;5050027;28;20128;-76
2022/11/19 01:00:57;;;;;;;6.68;3.33;;;0.60;99.90;;;;;;5049832;28;20127;-78
2022/11/19 01:03:24;;;;;;;5.88;3.47;;;1.90;99.90;;;;;;5050148;28;20047;-77
2022/11/19 01:05:49;;;;;;;5.10;3.13;;;0.60;99.90;;;;;;5049700;28;20091;-77
2022/11/19 01:08:16;;;;;;;6.38;3.15;;;0.70;99.90;;;;;;5050236;28;20044;-79
2022/11/19 01:10:42;;;;;;;5.80;3.38;;;0.50;99.90;;;;;;5066113;28;20110;-80
2022/11/19 01:15:52;;;;;;;5.00;2.93;;;0.40;99.90;;;;;;5070296;28;20052;-83
2022/11/19 01:18:18;;;;;;;7.45;3.45;;;0.40;99.90;;;;;;5070010;28;20442;-82
2022/11/19 01:20:44;;;;;;;5.85;3.80;;;0.30;99.90;;;;;;5067824;28;20033;-83
2022/11/19 01:23:10;;;;;;;6.13;3.67;;;0.30;99.90;;;;;;5068992;28;20110;-78
2022/11/19 01:25:36;;;;;;;5.63;3.33;;;0.20;99.90;;;;;;5069911;28;20507;-77
2022/11/19 01:28:02;;;;;;;6.45;3.70;;;0.20;99.90;;;;;;5068061;28;20052;-80
2022/11/19 01:30:28;;;;;;;6.03;3.80;;;0.20;99.90;;;;;;5068586;28;20048;-78
2022/11/19 01:32:54;;;;;;;6.40;3.55;;;0.20;99.90;;;;;;5069822;28;20510;-76
2022/11/19 01:35:20;;;;;;;6.13;3.35;;;0.10;99.90;;;;;;5069631;28;20132;-77
2022/11/19 01:37:46;;;;;;;6.32;3.70;;;0.10;99.90;;;;;;5068178;28;20043;-75
2022/11/19 01:40:12;;;;;;;7.68;4.18;;;0.10;99.90;;;;;;5070116;28;20123;-76
2022/11/19 01:42:50;;;;;;;6.35;3.75;;;0.10;99.90;;;;;;5070158;28;20087;-75
2022/11/19 01:45:34;;;;;;;7.60;4.20;;;0.10;99.90;;;;;;5068514;28;20105;-81
2022/11/19 01:48:13;;;;;;;7.75;3.92;;;0.00;99.90;;;;;;5066826;28;20052;-75
2022/11/19 01:50:52;;;;;;;6.70;4.13;;;0.10;99.90;;;;;;5070016;28;20048;-78
2022/11/19 01:53:20;;;;;;;5.97;3.45;;;0.00;99.90;;;;;;5072121;28;20116;-76
2022/11/19 01:55:46;;;;;;;6.90;4.05;;;0.00;99.90;;;;;;5070567;28;20059;-77
2022/11/19 01:58:16;;;;;;;7.55;4.00;;;0.00;99.90;;;;;;5073606;28;20127;-80
2022/11/19 02:00:41;;;;;;;6.95;4.30;;;0.00;99.90;;;;;;5073402;28;20098;-77
2022/11/19 02:03:10;;;;;;;6.38;3.97;;;0.00;99.90;;;;;;5072027;28;20048;-77
2022/11/19 02:05:36;;;;;;;6.85;4.05;;;0.00;99.90;;;;;;5071426;28;20049;-78
2022/11/19 02:08:06;;;;;;;6.18;3.80;;;-0.10;99.90;;;;;;5051709;28;20118;-81
2022/11/19 02:11:04;;;;;;;7.10;3.60;;;-0.10;99.90;;;;;;5053420;28;20125;-78
2022/11/19 02:13:41;;;;;;;9.38;4.10;;;-0.10;99.90;;;;;;5030606;28;20057;-76
2022/11/19 02:16:38;;;;;;;5.68;3.38;;;-0.10;99.90;;;;;;5031870;28;20136;-79
2022/11/19 02:19:33;;;;;;;6.72;4.00;;;-0.10;99.90;;;;;;5030845;28;20061;-76
2022/11/19 02:22:33;;;;;;;8.32;4.07;;;-0.10;99.90;;;;;;5030318;28;20511;-81
2022/11/19 02:25:37;;;;;;;6.85;3.72;;;-0.20;99.90;;;;;;5031737;28;20068;-82
2022/11/19 02:28:37;;;;;;;6.70;3.53;;;-0.20;99.90;;;;;;5014322;28;20049;-81
2022/11/19 02:31:09;;;;;;;6.97;4.00;;;-0.20;99.90;;;;;;4936531;29;20104;-79
2022/11/19 02:33:40;;;;;;;7.32;4.20;;;-0.20;99.90;;;;;;4936046;28;20407;-76
2022/11/19 02:36:38;;;;;;;7.03;4.18;;;-0.20;99.90;;;;;;4952081;29;20171;-79
2022/11/19 02:39:25;;;;;;;6.22;3.78;;;-0.20;99.90;;;;;;4913913;29;20060;-76
2022/11/19 02:41:54;;;;;;;6.15;3.42;;;-0.30;99.90;;;;;;4914242;29;20597;-80
2022/11/19 02:47:24;;;;;;;8.38;3.65;;;-0.30;99.90;;;;;;4898315;29;20059;-78
2022/11/19 02:49:53;;;;;;;7.10;3.95;;;-0.30;99.90;;;;;;4916987;29;20091;-80
2022/11/19 02:52:20;;;;;;;6.75;3.70;;;-0.30;99.90;;;;;;4933497;29;20399;-81
2022/11/19 02:54:46;;;;;;;6.30;3.60;;;-0.40;99.90;;;;;;4932139;29;20078;-78
2022/11/19 02:57:13;;;;;;;5.50;3.40;;;-0.40;99.90;;;;;;4916644;29;20511;-78
2022/11/19 03:05:30;;;;;;;6.00;3.30;;;-0.40;99.90;;;;;;4932721;29;20059;-81
2022/11/19 03:07:55;;;;;;;6.82;4.30;;;-0.50;99.90;;;;;;4990517;28;20057;-80
2022/11/19 03:10:24;;;;;;;5.75;3.70;;;-0.50;99.90;;;;;;4990258;28;20516;-78
2022/11/19 03:18:58;;;;;;;6.35;3.63;;;-0.60;99.90;;;;;;5051709;28;20053;-78
2022/11/19 03:21:37;;;;;;;7.22;3.65;;;-0.60;99.90;;;;;;5052753;28;20114;-77
2022/11/19 03:24:07;;;;;;;9.68;4.18;;;-0.70;99.90;;;;;;5052403;28;20041;-77
2022/11/19 03:26:39;;;;;;;6.93;4.25;;;-0.70;99.90;;;;;;5056708;28;20051;-77
2022/11/19 03:29:09;;;;;;;7.53;3.88;;;-0.70;99.90;;;;;;5051152;28;20111;-79
2022/11/19 03:31:37;;;;;;;6.15;3.47;;;-0.80;99.90;;;;;;5051193;28;20511;-77
2022/11/19 03:34:15;;;;;;;7.78;4.47;;;-0.80;99.90;;;;;;5051950;28;20049;-77
2022/11/19 03:36:42;;;;;;;7.18;3.92;;;-0.80;99.90;;;;;;5051660;28;20066;-75
2022/11/19 03:39:20;;;;;;;6.78;4.18;;;-0.60;99.90;;;;;;5055004;28;20041;-75
2022/11/19 03:41:48;;;;;;;6.50;3.83;;;-0.90;99.90;;;;;;5033657;28;20104;-76
2022/11/19 03:44:38;;;;;;;8.70;4.15;;;-0.90;99.90;;;;;;5051605;28;20037;-80
2022/11/19 03:47:11;;;;;;;7.55;4.55;;;-0.90;99.90;;;;;;5051619;28;20041;-77
2022/11/19 03:49:43;;;;;;;8.20;4.18;;;-0.90;99.90;;;;;;5049887;28;20052;-78
2022/11/19 03:52:12;;;;;;;6.95;4.05;;;-1.00;99.90;;;;;;5051509;28;20084;-78
2022/11/19 03:54:39;;;;;;;8.38;4.35;;;-1.00;99.90;;;;;;5052046;28;20083;-76
2022/11/19 03:57:06;;;;;;;7.70;4.05;;;-1.00;99.90;;;;;;5050233;28;20574;-79
2022/11/19 03:59:33;;;;;;;10.57;4.57;;;-1.00;99.90;;;;;;5051216;28;20420;-77
2022/11/19 04:02:03;;;;;;;10.27;4.72;;;-1.00;99.90;;;;;;5051230;28;20053;-79
2022/11/19 04:04:35;;;;;;;6.43;3.97;;;-1.00;99.90;;;;;;5057181;28;20047;-76
2022/11/19 04:07:02;;;;;;;8.10;4.15;;;-1.00;99.90;;;;;;5069269;28;20044;-77
2022/11/19 04:09:28;;;;;;;7.90;4.35;;;-1.00;99.90;;;;;;5069377;28;20056;-76
2022/11/19 04:11:53;;;;;;;7.30;4.00;;;-1.00;99.90;;;;;;5069070;28;20682;-76
2022/11/19 04:14:19;;;;;;;8.57;4.18;;;-1.10;99.90;;;;;;5057662;28;20052;-76
2022/11/19 04:16:45;;;;;;;7.35;4.38;;;-1.10;99.90;;;;;;5049509;28;20063;-79
2022/11/19 04:19:11;;;;;;;6.90;3.75;;;-1.10;99.90;;;;;;5050748;28;20412;-80
2022/11/19 04:21:36;;;;;;;9.07;3.90;;;-1.10;99.90;;;;;;5051157;28;20033;-77
2022/11/19 04:24:02;;;;;;;6.07;3.78;;;-1.10;99.90;;;;;;5049337;28;20049;-75
2022/11/19 04:26:28;;;;;;;6.28;3.55;;;-1.10;99.90;;;;;;5051080;28;20565;-76
2022/11/19 04:28:53;;;;;;;8.80;4.40;;;-1.10;99.90;;;;;;5048548;28;20060;-77
2022/11/19 04:31:19;;;;;;;5.93;3.63;;;-1.10;99.90;;;;;;5050519;28;20049;-77
2022/11/19 04:33:45;;;;;;;6.93;4.05;;;-1.10;99.90;;;;;;5049408;28;20044;-79
2022/11/19 04:36:11;;;;;;;7.53;4.30;;;-1.10;99.90;;;;;;5065429;28;20514;-77
2022/11/19 04:38:37;;;;;;;8.77;4.40;;;-1.20;99.90;;;;;;5067784;28;20037;-78
2022/11/19 04:41:03;;;;;;;7.57;4.18;;;-0.20;99.90;;;;;;5049882;28;20048;-78
2022/11/19 04:43:28;;;;;;;8.15;4.20;;;-1.20;99.90;;;;;;5050038;28;20041;-81
2022/11/19 04:45:54;;;;;;;7.18;4.20;;;-1.20;99.90;;;;;;5050378;28;20045;-75
2022/11/19 04:48:19;;;;;;;7.07;3.95;;;-1.20;99.90;;;;;;5051328;28;20053;-76
2022/11/19 04:50:45;;;;;;;8.68;3.72;;;-1.30;99.90;;;;;;5050114;28;20084;-77
2022/11/19 04:53:11;;;;;;;6.85;3.78;;;-1.30;99.90;;;;;;5050169;28;20571;-76
2022/11/19 04:55:37;;;;;;;6.53;3.80;;;-1.30;99.90;;;;;;5050256;28;20049;-77
2022/11/19 04:58:02;;;;;;;7.95;4.50;;;-1.30;99.90;;;;;;5051125;28;20045;-80
2022/11/19 05:00:28;;;;;;;9.95;4.63;;;-1.30;99.90;;;;;;5066096;28;20499;-80
2022/11/19 05:02:53;;;;;;;7.60;4.22;;;-1.30;99.90;;;;;;5064911;28;20055;-76
2022/11/19 05:05:19;;;;;;;8.68;4.25;;;-1.30;99.90;;;;;;5050008;28;20072;-76
2022/11/19 05:07:45;;;;;;;6.88;3.78;;;-1.40;99.90;;;;;;5051048;28;20072;-79
2022/11/19 05:10:11;;;;;;;7.53;4.20;;;-1.40;99.90;;;;;;5047964;28;20057;-75
2022/11/19 05:12:36;;;;;;;8.15;4.53;;;-1.40;99.90;;;;;;5031757;28;20040;-75
2022/11/19 05:15:02;;;;;;;10.00;4.68;;;-1.40;99.90;;;;;;5032546;28;20057;-79
2022/11/19 05:17:28;;;;;;;6.93;4.05;;;-1.40;99.90;;;;;;5049945;28;20040;-78
2022/11/19 05:19:54;;;;;;;9.52;4.38;;;-1.40;99.90;;;;;;5050884;28;20096;-79
2022/11/19 05:22:19;;;;;;;9.63;5.20;;;-1.50;99.90;;;;;;5049779;28;20045;-77
2022/11/19 05:24:45;;;;;;;7.88;4.65;;;-1.50;99.90;;;;;;5061207;28;20052;-77
2022/11/19 05:27:11;;;;;;;7.97;4.40;;;-1.50;99.90;;;;;;5069333;28;20045;-76
2022/11/19 05:29:36;;;;;;;10.10;5.10;;;-1.50;99.90;;;;;;5067706;28;20052;-76
2022/11/19 05:32:02;;;;;;;7.88;4.38;;;-1.50;99.90;;;;;;5069551;28;20052;-79
2022/11/19 05:34:28;;;;;;;7.53;4.65;;;-1.50;99.90;;;;;;5069849;28;20052;-75
2022/11/19 05:36:53;;;;;;;7.10;4.85;;;-1.60;99.90;;;;;;5069846;28;20041;-75
2022/11/19 05:39:19;;;;;;;8.63;4.75;;;-1.60;99.90;;;;;;5066930;28;20044;-79
2022/11/19 05:41:44;;;;;;;9.02;4.90;;;-1.60;99.90;;;;;;5049737;28;20052;-74
2022/11/19 05:44:10;;;;;;;7.63;4.40;;;-1.60;99.90;;;;;;5048320;28;20049;-78
2022/11/19 05:46:36;;;;;;;8.65;4.82;;;-1.60;99.90;;;;;;5049925;28;20081;-75
2022/11/19 05:49:01;;;;;;;9.23;4.78;;;-1.70;99.90;;;;;;5048193;28;20397;-77
2022/11/19 05:51:27;;;;;;;9.02;4.72;;;-1.70;99.90;;;;;;5049439;28;20041;-78
2022/11/19 05:53:52;;;;;;;8.48;4.85;;;-1.70;99.90;;;;;;5051123;28;20080;-75
2022/11/19 05:56:18;;;;;;;8.10;4.93;;;-1.70;99.90;;;;;;5048377;28;20048;-75
2022/11/19 05:58:44;;;;;;;9.45;5.18;;;-1.80;99.90;;;;;;5047941;28;20045;-79
2022/11/19 06:01:09;;;;;;;8.27;4.43;;;-1.70;99.90;;;;;;5049674;28;20045;-76
2022/11/19 06:03:35;;;;;;;7.53;4.15;;;-1.80;99.90;;;;;;5049207;28;20472;-76
2022/11/19 06:06:00;;;;;;;9.75;5.00;;;-1.80;99.90;;;;;;5048005;28;20720;-77
2022/11/19 06:08:26;;;;;;;7.35;4.43;;;-1.80;99.90;;;;;;5047917;28;20122;-76
2022/11/19 06:10:52;;;;;;;8.95;4.97;;;-1.80;99.90;;;;;;5069016;28;20123;-78
2022/11/19 06:13:17;;;;;;;7.47;4.47;;;-1.80;99.90;;;;;;5068935;28;20048;-78
2022/11/19 06:15:43;;;;;;;10.30;4.90;;;-1.90;99.90;;;;;;5066196;28;20048;-76
2022/11/19 06:18:09;;;;;;;7.03;4.43;;;-1.90;99.90;;;;;;5068478;28;20052;-76
2022/11/19 06:20:35;;;;;;;9.63;5.03;;;-1.90;99.90;;;;;;5069333;28;20487;-79
2022/11/19 06:23:00;;;;;;;9.60;5.35;;;-1.90;99.90;;;;;;5059593;28;20049;-75
2022/11/19 06:25:26;;;;;;;8.48;5.05;;;-1.90;99.90;;;;;;5050519;28;20045;-74
2022/11/19 06:27:51;;;;;;;8.98;4.85;;;-1.90;99.90;;;;;;5049487;28;20449;-76
2022/11/19 06:30:17;;;;;;;10.20;4.70;;;-1.90;99.90;;;;;;5065267;28;20060;-77
2022/11/19 06:32:43;;;;;;;9.27;4.30;;;-1.90;99.90;;;;;;5067951;28;20053;-74
2022/11/19 06:35:09;;;;;;;10.75;5.40;;;-2.00;99.90;;;;;;5052203;28;20048;-76
2022/11/19 06:37:35;;;;;;;8.55;4.75;;;-2.00;99.90;;;;;;5072215;28;20538;-75
2022/11/19 06:40:01;;;;;;;8.95;4.57;;;-2.00;99.90;;;;;;5069437;28;20056;-74
2022/11/19 06:42:36;;;;;;;9.25;4.75;;;-2.00;99.90;;;;;;5072433;28;20044;-74
2022/11/19 06:45:09;;;;;;;10.23;5.15;;;-2.00;99.90;;;;;;5071401;28;20052;-79
2022/11/19 06:47:36;;;;;;;9.63;5.22;;;-2.00;99.90;;;;;;5071304;28;20045;-76
2022/11/19 06:50:02;;;;;;;9.85;6.38;;;-2.00;99.90;;;;;;5072879;28;20045;-77
2022/11/19 06:52:28;;;;;;;8.07;4.63;;;-2.00;99.90;;;;;;5072783;28;20059;-78
2022/11/19 06:54:54;;;;;;;7.85;4.93;;;-2.00;99.90;;;;;;5073024;28;20488;-76
2022/11/19 06:57:20;;;;;;;11.23;5.32;;;-2.00;99.90;;;;;;5063180;28;20041;-77
2022/11/19 06:59:46;;;;;;;8.98;5.30;;;-2.00;99.90;;;;;;5052492;28;20570;-78
2022/11/19 07:02:12;;;;;;;8.18;4.80;;;-2.00;99.90;;;;;;5052519;28;20129;-76
2022/11/19 07:04:38;;;;;;;7.75;5.25;;;-2.00;99.90;;;;;;5052569;28;20127;-77
2022/11/19 07:07:04;;;;;;;8.55;4.90;;;-2.00;99.90;;;;;;5053352;28;20045;-77
2022/11/19 07:09:30;;;;;;;12.35;5.45;;;-2.00;99.90;;;;;;5051947;28;20157;-76
2022/11/19 07:11:56;;;;;;;10.30;5.75;;;-2.00;99.90;;;;;;5054395;28;20127;-81
2022/11/19 07:14:21;;;;;;;9.15;4.97;;;-2.10;99.90;;;;;;5072578;28;20032;-75
2022/11/19 07:16:47;;;;;;;9.75;4.93;;;-2.10;99.90;;;;;;5071810;28;20032;-77
2022/11/19 07:19:13;;;;;;;9.02;5.28;;;-2.10;99.90;;;;;;5070034;28;20086;-76
2022/11/19 07:21:38;;;;;;;9.70;5.35;;;-2.10;99.90;;;;;;5072034;28;20044;-77
2022/11/19 07:24:06;;;;;;;9.40;5.22;;;-2.10;99.90;;;;;;5070564;28;20044;-77
2022/11/19 07:26:34;;;;;;;9.02;5.22;;;-2.10;99.90;;;;;;5072182;28;20037;-79
2022/11/19 07:29:00;;;;;;;8.30;5.00;;;-2.10;99.90;;;;;;5070129;28;20044;-76
2022/11/19 07:31:27;;;;;;;9.43;5.35;;;-2.10;99.90;;;;;;5071492;28;20514;-76
2022/11/19 07:33:53;;;;;;;10.07;5.25;;;-2.10;99.90;;;;;;5071826;28;20120;-79
2022/11/19 07:36:19;;;;;;;8.32;4.82;;;-2.10;99.90;;;;;;5070388;28;20127;-77
2022/11/19 07:38:45;;;;;;;8.68;5.10;;;-2.30;99.90;;;;;;5069732;28;20049;-76
2022/11/19 07:43:55;;;;;;;7.88;4.95;;;-2.10;99.90;;;;;;5071193;28;20056;-76
2022/11/19 07:46:22;;;;;;;9.80;5.40;;;-2.00;99.90;;;;;;5071328;28;20056;-76
2022/11/19 07:48:54;;;;;;;13.68;6.38;;;-2.00;99.90;;;;;;5069898;28;20041;-78
2022/11/19 07:51:20;;;;;;;11.20;6.00;;;-2.00;99.90;;;;;;5050777;28;20427;-76
2022/11/19 07:53:46;;;;;;;10.43;5.82;;;-2.00;99.90;;;;;;5051574;28;20045;-76
2022/11/19 07:56:11;;;;;;;8.98;5.72;;;-1.90;99.90;;;;;;5055360;28;20063;-76
2022/11/19 07:58:37;;;;;;;10.73;5.45;;;-1.90;99.90;;;;;;5070141;28;20094;-76
2022/11/19 08:01:08;;;;;;;10.48;6.07;;;-1.90;99.90;;;;;;5062967;28;20056;-76
2022/11/19 08:03:33;;;;;;;10.30;5.68;;;-1.90;99.90;;;;;;5049789;28;20423;-76
2022/11/19 08:06:02;;;;;;;8.60;6.10;;;-1.90;99.90;;;;;;5049908;28;20067;-76
2022/11/19 08:08:28;;;;;;;10.32;5.90;;;-1.90;99.90;;;;;;5049415;28;20439;-75
2022/11/19 08:10:53;;;;;;;11.63;6.82;;;-1.80;99.90;;;;;;5049762;28;20068;-76
2022/11/19 08:13:19;;;;;;;11.45;6.43;;;-1.80;99.90;;;;;;5051146;28;20079;-76
2022/11/19 08:15:44;;;;;;;9.60;5.95;;;-1.80;99.90;;;;;;5051132;28;20107;-80
2022/11/19 08:18:14;;;;;;;12.85;6.22;;;-1.80;99.90;;;;;;5050756;28;20049;-77
2022/11/19 08:20:47;;;;;;;10.18;6.25;;;-1.80;99.90;;;;;;5051085;28;20071;-76
2022/11/19 08:23:13;;;;;;;11.63;7.25;;;-1.70;99.90;;;;;;5051065;28;20116;-75
2022/11/19 08:25:44;;;;;;;12.80;6.65;;;-1.70;99.90;;;;;;5052656;28;20056;-75
2022/11/19 08:28:11;;;;;;;10.65;6.20;;;-1.70;99.90;;;;;;5049689;28;20120;-79
2022/11/19 08:30:40;;;;;;;12.38;6.93;;;-1.70;99.90;;;;;;5052308;28;20561;-80
2022/11/19 08:33:07;;;;;;;12.35;6.55;;;-1.70;99.90;;;;;;5070331;28;20056;-76
2022/11/19 08:35:34;;;;;;;11.75;7.35;;;-1.60;99.90;;;;;;5068865;28;20438;-81
2022/11/19 08:38:00;;;;;;;11.02;6.93;;;-1.50;99.90;;;;;;5058205;28;20446;-79
2022/11/19 08:40:26;;;;;;;11.38;7.35;;;-1.60;99.90;;;;;;5049417;28;20045;-77
2022/11/19 08:45:52;;;;;;;11.98;7.47;;;-1.50;99.90;;;;;;5050699;28;20057;-75
2022/11/19 08:48:18;;;;;;;14.63;7.70;;;-1.40;99.90;;;;;;5050178;28;20050;-78
2022/11/19 08:50:44;;;;;;;10.27;6.43;;;-1.40;99.90;;;;;;5050286;28;20045;-78
2022/11/19 08:53:10;;;;;;;13.35;7.45;;;-1.50;99.90;;;;;;5050445;28;20043;-77
2022/11/19 08:55:35;;;;;;;11.60;6.95;;;-1.50;99.90;;;;;;5050287;28;20045;-78
2022/11/19 08:58:03;;;;;;;11.73;7.25;;;-1.20;99.90;;;;;;5048747;28;20049;-75
2022/11/19 09:00:30;;;;;;;11.45;7.03;;;-1.20;99.90;;;;;;5060571;28;20064;-76
2022/11/19 09:02:56;;;;;;;12.35;7.30;;;-1.10;99.90;;;;;;5049881;28;20090;-76
2022/11/19 09:05:22;;;;;;;11.57;6.93;;;-1.00;99.90;;;;;;5059310;28;20045;-75
2022/11/19 09:07:48;;;;;;;12.43;7.15;;;-0.90;99.90;;;;;;5058658;28;20078;-77
2022/11/19 09:10:14;;;;;;;10.98;6.82;;;-0.80;99.90;;;;;;5050181;28;20045;-77
2022/11/19 09:12:40;;;;;;;11.70;6.72;;;-0.50;99.90;;;;;;5050271;28;20041;-75
2022/11/19 09:15:07;;;;;;;12.30;7.53;;;-0.50;99.90;;;;;;5051480;28;20055;-78
2022/11/19 09:17:32;;;;;;;11.18;6.93;;;-0.30;99.90;;;;;;5049778;28;20059;-78
2022/11/19 09:19:58;;;;;;;11.70;7.00;;;-0.10;99.90;;;;;;5049584;28;20407;-78
2022/11/19 09:22:24;;;;;;;12.57;7.07;;;0.00;99.90;;;;;;5048441;28;20056;-77
2022/11/19 09:24:49;;;;;;;9.90;6.68;;;0.20;99.90;;;;;;5049887;28;20476;-78
2022/11/19 09:27:15;;;;;;;12.40;6.93;;;0.30;99.90;;;;;;5049697;28;20044;-78
2022/11/19 09:29:41;;;;;;;10.68;6.78;;;0.50;99.90;;;;;;5049641;28;20110;-76
2022/11/19 09:32:07;;;;;;;10.77;6.50;;;1.00;99.90;;;;;;5049758;28;20093;-76
2022/11/19 09:34:34;;;;;;;9.18;5.82;;;0.80;99.90;;;;;;5050037;28;20062;-78
2022/11/19 09:37:00;;;;;;;10.40;6.03;;;0.80;99.90;;;;;;5049444;28;20044;-79
2022/11/19 09:39:25;;;;;;;11.13;6.57;;;1.00;99.90;;;;;;5049876;28;20049;-77
2022/11/19 09:42:03;;;;;;;11.00;6.60;;;1.00;99.90;;;;;;5049863;28;20119;-76
2022/11/19 09:44:54;;;;;;;11.38;6.35;;;1.30;99.90;;;;;;5049740;28;20102;-77
2022/11/19 09:48:04;;;;;;;11.02;6.15;;;1.40;99.90;;;;;;5049457;28;20045;-78
2022/11/19 09:50:36;;;;;;;10.85;6.57;;;1.60;99.90;;;;;;5050494;28;20102;-77
2022/11/19 09:53:14;;;;;;;11.55;6.63;;;1.80;99.90;;;;;;5049337;28;20060;-78
2022/11/19 09:55:43;;;;;;;10.13;6.47;;;2.00;99.90;;;;;;5049872;28;20452;-78
2022/11/19 09:58:39;;;;;;;10.07;6.10;;;2.10;99.90;;;;;;5049756;28;20059;-79
2022/11/19 10:01:05;;;;;;;11.52;5.93;;;2.30;99.90;;;;;;5049506;28;20049;-79
2022/11/19 10:03:31;;;;;;;10.13;5.90;;;2.40;99.90;;;;;;5049441;28;20037;-78
2022/11/19 10:06:06;;;;;;;10.25;5.93;;;2.50;99.90;;;;;;5048917;28;20808;-78
2022/11/19 10:08:40;;;;;;;9.55;5.70;;;2.60;99.90;;;;;;5048088;28;20057;-79
2022/11/19 10:11:15;;;;;;;10.18;5.93;;;2.70;99.90;;;;;;5050394;28;20078;-77
2022/11/19 10:14:16;;;;;;;10.85;5.88;;;2.80;99.90;;;;;;5052409;28;20427;-79
2022/11/19 10:16:59;;;;;;;9.02;5.45;;;2.90;99.90;;;;;;5051927;28;20064;-78
2022/11/19 10:19:33;;;;;;;9.02;5.38;;;3.00;99.90;;;;;;5053342;28;20056;-77
2022/11/19 10:22:10;;;;;;;10.55;5.75;;;3.00;99.90;;;;;;5053055;28;20048;-79
2022/11/19 10:24:43;;;;;;;10.20;5.60;;;3.20;99.90;;;;;;5052908;28;20516;-78
2022/11/19 10:28:01;;;;;;;9.55;5.22;;;3.20;99.90;;;;;;5053386;28;20080;-79
2022/11/19 10:30:29;;;;;;;8.45;5.10;;;3.30;99.90;;;;;;5072718;28;20041;-80
2022/11/19 10:33:00;;;;;;;9.55;4.97;;;3.40;99.90;;;;;;5062814;28;20091;-76
2022/11/19 10:36:00;;;;;;;9.70;5.20;;;3.50;99.90;;;;;;5050167;28;20057;-80
2022/11/19 10:38:37;;;;;;;8.68;5.55;;;3.60;99.90;;;;;;5030125;28;20657;-77
2022/11/19 10:41:16;;;;;;;7.50;4.88;;;4.00;99.90;;;;;;5029779;28;20502;-78
2022/11/19 10:43:52;;;;;;;7.43;5.03;;;3.80;99.90;;;;;;5030225;28;20057;-78
2022/11/19 10:46:23;;;;;;;7.80;5.10;;;3.90;99.90;;;;;;5030191;28;20049;-77
2022/11/19 10:48:52;;;;;;;7.93;4.78;;;4.10;99.90;;;;;;5029980;28;20408;-80
2022/11/19 10:51:39;;;;;;;7.75;4.82;;;4.20;99.90;;;;;;5030044;28;20045;-81
2022/11/19 10:54:24;;;;;;;7.70;4.88;;;4.20;99.90;;;;;;5030279;28;20088;-80
2022/11/19 10:56:51;;;;;;;7.90;5.20;;;4.10;99.90;;;;;;5030117;28;20072;-80
2022/11/19 10:59:19;;;;;;;9.13;5.50;;;4.10;99.90;;;;;;5029946;28;20068;-78
2022/11/19 11:01:49;;;;;;;7.97;5.13;;;4.30;99.90;;;;;;5029853;28;20053;-79
2022/11/19 11:04:24;;;;;;;8.65;5.50;;;4.30;99.90;;;;;;5013265;28;20598;-79
2022/11/19 11:07:00;;;;;;;8.68;4.90;;;4.40;99.90;;;;;;5029513;28;20054;-80
2022/11/19 11:09:34;;;;;;;7.35;4.75;;;4.50;99.90;;;;;;5013349;28;20057;-84
2022/11/19 11:15:07;;;;;;;9.07;5.30;;;5.60;99.90;;;;;;5027554;28;20050;-76
2022/11/19 11:17:35;;;;;;;7.63;4.90;;;4.80;99.90;;;;;;5047866;28;20045;-78
2022/11/19 11:20:19;;;;;;;8.50;5.13;;;5.70;99.90;;;;;;5032337;28;20095;-79
2022/11/19 11:22:47;;;;;;;6.30;4.47;;;4.90;99.90;;;;;;5066951;28;20486;-78
2022/11/19 11:25:27;;;;;;;7.55;4.72;;;5.00;99.90;;;;;;5071221;28;20072;-77
2022/11/19 11:28:11;;;;;;;6.63;4.50;;;5.10;99.90;;;;;;5062780;28;20076;-77
2022/11/19 11:30:49;;;;;;;7.32;4.45;;;5.00;99.90;;;;;;5051514;28;20171;-78
2022/11/19 11:33:31;;;;;;;13.07;5.10;;;5.20;99.90;;;;;;5052040;28;20872;-77
2022/11/19 11:36:06;;;;;;;7.43;4.90;;;5.30;99.90;;;;;;5050580;28;20547;-77
2022/11/19 11:38:39;;;;;;;;;;;5.40;99.90;;;;;;5053184;28;20049;-77
2022/11/19 11:41:08;;;;;;;9.13;5.05;;;5.60;99.90;;;;;;5051710;28;19921;-76
2022/11/19 11:43:37;;;;;;;9.48;5.50;;;5.70;99.90;;;;;;5052026;28;20071;-78
2022/11/19 11:46:06;;;;;;;8.43;4.40;;;5.80;99.90;;;;;;5050509;28;20056;-78
2022/11/19 11:48:42;;;;;;;7.68;4.40;;;5.90;99.90;;;;;;5051774;28;20048;-78
2022/11/19 11:51:24;;;;;;;6.72;4.05;;;5.80;99.90;;;;;;5051843;28;20148;-83
2022/11/19 11:54:21;;;;;;;6.88;4.13;;;5.90;99.90;;;;;;5034784;28;20388;-79
2022/11/19 11:56:47;;;;;;;6.63;4.03;;;5.90;99.90;;;;;;5051285;28;20502;-78
2022/11/19 11:59:30;;;;;;;6.85;4.40;;;5.90;99.90;;;;;;5052366;28;20053;-78
2022/11/19 12:02:02;;;;;;;6.93;4.45;;;5.90;99.90;;;;;;5051225;28;20053;-78
2022/11/19 12:04:28;;;;;;;8.05;4.40;;;5.90;99.90;;;;;;5051245;28;20041;-80
2022/11/19 12:07:06;;;;;;;6.32;4.05;;;6.20;99.90;;;;;;5051146;28;20071;-76
2022/11/19 12:09:52;;;;;;;5.88;3.60;;;6.20;99.90;;;;;;5051871;28;20037;-77
2022/11/19 12:12:31;;;;;;;6.65;3.72;;;6.30;99.90;;;;;;5070418;28;20044;-76
2022/11/19 12:15:08;;;;;;;7.82;4.40;;;6.30;99.90;;;;;;5071118;28;20048;-79
2022/11/19 12:18:04;;;;;;;7.03;3.75;;;6.50;99.90;;;;;;5071013;28;20044;-78
2022/11/19 12:20:55;;;;;;;5.10;3.28;;;6.70;99.90;;;;;;5069338;28;20047;-79
2022/11/19 12:23:33;;;;;;;5.28;3.28;;;6.60;99.90;;;;;;5071133;28;20048;-80
2022/11/19 12:26:01;;;;;;;7.53;3.65;;;7.30;99.90;;;;;;5070569;28;20186;-79
2022/11/19 12:28:54;;;;;;;5.95;3.80;;;7.70;99.90;;;;;;5063783;28;20499;-79
2022/11/19 12:31:58;;;;;;;4.75;2.97;;;6.80;99.90;;;;;;5053583;28;20580;-81
2022/11/19 12:34:31;;;;;;;7.78;3.70;;;6.80;99.90;;;;;;5051843;28;20103;-77
2022/11/19 12:37:35;;;;;;;5.47;3.60;;;6.80;99.90;;;;;;5070643;28;20040;-78
2022/11/19 12:40:13;;;;;;;6.53;3.45;;;6.80;99.90;;;;;;5070238;28;20084;-80
2022/11/19 12:43:03;;;;;;;4.90;3.28;;;7.00;99.90;;;;;;5069497;28;20427;-78
2022/11/19 12:46:00;;;;;;;6.47;3.40;;;7.00;99.90;;;;;;5070300;28;20127;-79
2022/11/19 12:48:25;;;;;;;5.32;3.10;;;7.00;99.90;;;;;;5070607;28;20054;-78
2022/11/19 12:51:00;;;;;;;8.20;3.97;;;7.00;99.90;;;;;;5068955;28;20147;-77
2022/11/19 12:53:41;;;;;;;6.47;3.40;;;7.10;99.90;;;;;;5070241;28;20054;-76
2022/11/19 12:56:19;;;;;;;4.68;2.95;;;7.30;99.90;;;;;;5070125;28;20051;-81
2022/11/19 12:59:20;;;;;;;5.78;3.08;;;8.00;99.90;;;;;;5070245;28;20850;-79
2022/11/19 13:01:50;;;;;;;5.22;3.03;;;7.30;99.90;;;;;;5070206;28;20053;-77
2022/11/19 13:04:20;;;;;;;4.43;3.10;;;7.30;99.90;;;;;;5068780;28;20110;-77
2022/11/19 13:06:57;;;;;;;5.75;3.20;;;7.20;99.90;;;;;;5069047;28;20172;-77
2022/11/19 13:09:42;;;;;;;4.65;2.58;;;7.30;99.90;;;;;;5049024;28;20186;-77
2022/11/19 13:12:13;;;;;;;5.10;2.78;;;7.20;99.90;;;;;;5061691;28;20048;-78
2022/11/19 13:14:50;;;;;;;4.63;3.10;;;7.20;99.90;;;;;;5069999;28;20037;-77
2022/11/19 13:17:24;;;;;;;5.88;3.00;;;7.20;99.90;;;;;;5068480;28;20222;-78
2022/11/19 13:19:57;;;;;;;4.85;3.03;;;7.10;99.90;;;;;;5067638;28;20072;-78
2022/11/19 13:22:36;;;;;;;6.40;2.78;;;7.10;99.90;;;;;;5069401;28;20407;-77
2022/11/19 13:25:14;;;;;;;7.32;3.17;;;8.00;99.90;;;;;;5069809;28;20179;-79
2022/11/19 13:27:42;;;;;;;4.88;2.90;;;7.40;99.90;;;;;;5069800;28;20124;-76
2022/11/19 13:30:17;;;;;;;4.85;2.50;;;7.60;99.90;;;;;;5069838;28;20040;-79
2022/11/19 13:32:51;;;;;;;5.43;2.90;;;7.60;99.90;;;;;;5069672;28;20056;-76
2022/11/19 13:35:20;;;;;;;6.50;3.00;;;7.60;99.90;;;;;;5069688;28;20049;-76
2022/11/19 13:37:50;;;;;;;5.00;3.03;;;7.70;99.90;;;;;;5069889;28;20049;-75
2022/11/19 13:40:36;;;;;;;5.50;3.40;;;7.70;99.90;;;;;;5069927;28;20053;-76